Time;durP1;ratioP1;P1;durP2;ratioP2;P2;SDS_P1;SDS_P2;PMS_P1;PMS_P2;Temp;Humidity;BMP_temperature;BMP_pressure;BME280_temperature;BME280_humidity;BME280_pressure;Samples;Min_cycle;Max_cycle;Signal;HPM_P1;HPM_P2
2022/09/08 00:00:39;;;;;;;10.48;3.50;;;;;;;18.53;76.04;100835.34;4899492;29;20043;-78
2022/09/08 00:03:08;;;;;;;9.30;3.58;;;;;;;18.50;76.12;100836.38;4898494;29;20032;-78
2022/09/08 00:05:38;;;;;;;10.85;3.30;;;;;;;18.46;75.81;100834.81;4898291;29;20103;-78
2022/09/08 00:08:04;;;;;;;13.33;3.63;;;;;;;18.45;73.47;100833.09;4898511;29;20047;-78
2022/09/08 00:10:30;;;;;;;11.48;3.80;;;;;;;18.41;76.83;100824.34;4894563;29;20024;-78
2022/09/08 00:12:55;;;;;;;11.65;3.60;;;;;;;18.39;74.98;100823.53;4911286;29;20115;-78
2022/09/08 00:15:21;;;;;;;7.82;2.90;;;;;;;18.38;75.52;100827.19;4890741;29;20060;-78
2022/09/08 00:17:47;;;;;;;10.52;3.45;;;;;;;18.41;75.93;100836.88;4917616;29;20040;-78
2022/09/08 00:20:13;;;;;;;13.25;3.17;;;;;;;18.42;73.30;100839.50;4911628;29;20028;-78
2022/09/08 00:22:39;;;;;;;8.77;3.13;;;;;;;18.41;76.63;100848.47;4915727;29;20032;-77
2022/09/08 00:25:05;;;;;;;6.85;2.95;;;;;;;18.39;76.85;100847.69;4906300;29;20158;-77
2022/09/08 00:27:31;;;;;;;7.10;3.10;;;;;;;18.31;77.78;100838.34;4919095;29;20177;-78
2022/09/08 00:29:56;;;;;;;10.07;3.42;;;;;;;18.23;78.92;100839.63;4902096;29;20047;-78
2022/09/08 00:32:23;;;;;;;14.70;3.90;;;;;;;18.19;79.47;100837.16;4892525;29;20068;-78
2022/09/08 00:34:50;;;;;;;16.75;3.80;;;;;;;18.12;79.20;100841.13;4915432;29;20787;-79
2022/09/08 00:37:16;;;;;;;11.35;3.65;;;;;;;18.07;79.97;100836.00;4919172;29;20496;-80
2022/09/08 00:39:42;;;;;;;10.98;3.55;;;;;;;17.98;82.28;100831.16;4918779;29;20044;-79
2022/09/08 00:42:07;;;;;;;10.80;3.80;;;;;;;17.90;82.07;100828.00;4906196;29;20040;-80
2022/09/08 00:44:49;;;;;;;12.00;3.67;;;;;;;17.90;80.28;100823.50;4883219;29;20504;-79
2022/09/08 00:47:20;;;;;;;12.50;3.72;;;;;;;17.86;83.21;100824.63;4906108;29;20028;-79
2022/09/08 00:49:50;;;;;;;12.60;3.70;;;;;;;17.86;83.02;100821.09;4918684;29;20099;-79
2022/09/08 00:52:16;;;;;;;9.38;3.55;;;;;;;17.84;80.95;100823.84;4905520;29;20602;-78
2022/09/08 00:54:43;;;;;;;16.40;3.80;;;;;;;17.79;82.78;100821.34;4917934;29;20477;-79
2022/09/08 00:57:09;;;;;;;11.13;3.55;;;;;;;17.76;82.74;100799.25;4918315;29;20040;-79
2022/09/08 00:59:36;;;;;;;11.00;3.90;;;;;;;17.73;84.17;100789.56;4901719;29;20331;-79
2022/09/08 01:02:19;;;;;;;9.30;3.20;;;;;;;17.76;83.04;100800.09;4907184;29;20032;-79
2022/09/08 01:04:44;;;;;;;11.35;3.28;;;;;;;17.76;83.95;100804.59;4918556;29;20055;-78
2022/09/08 01:13:18;;;;;;;10.80;3.65;;;;;;;17.57;85.48;100800.19;4918140;29;20480;-79
2022/09/08 01:15:43;;;;;;;8.57;3.22;;;;;;;17.53;84.28;100790.59;4918242;29;20036;-80
2022/09/08 01:18:09;;;;;;;11.43;3.45;;;;;;;17.51;85.13;100781.78;4898808;29;20051;-81
2022/09/08 01:21:07;;;;;;;9.35;3.80;;;;;;;17.56;84.22;100789.56;4901147;29;20508;-79
2022/09/08 01:23:40;;;;;;;15.10;3.97;;;;;;;17.50;84.56;100782.69;4865836;29;20048;-79
2022/09/08 01:26:34;;;;;;;14.68;3.47;;;;;;;17.49;84.21;100785.47;4917869;29;20391;-79
2022/09/08 01:29:02;;;;;;;9.55;3.67;;;;;;;17.45;84.15;100791.91;4907495;29;20071;-79
2022/09/08 01:31:30;;;;;;;12.43;3.50;;;;;;;17.44;84.74;100785.72;4913414;29;20059;-79
2022/09/08 01:33:59;;;;;;;11.50;3.95;;;;;;;17.48;86.01;100791.75;4917946;29;20036;-79
2022/09/08 01:36:25;;;;;;;10.50;3.60;;;;;;;17.49;84.64;100782.78;4917767;29;20036;-79
2022/09/08 01:38:50;;;;;;;9.43;3.03;;;;;;;17.50;85.79;100763.09;4900997;29;20044;-79
2022/09/08 01:41:16;;;;;;;12.23;3.50;;;;;;;17.51;85.81;100752.31;4905208;29;20453;-79
2022/09/08 01:43:41;;;;;;;12.02;3.42;;;;;;;17.51;85.34;100740.75;4915811;29;20110;-79
2022/09/08 01:46:07;;;;;;;9.75;3.53;;;;;;;17.53;86.63;100738.84;4890058;29;20124;-80
2022/09/08 01:48:32;;;;;;;12.30;3.88;;;;;;;17.54;86.28;100741.44;4913840;29;20046;-79
2022/09/08 01:51:00;;;;;;;9.25;3.90;;;;;;;17.54;85.48;100743.25;4907457;29;20115;-79
2022/09/08 01:53:26;;;;;;;11.18;4.03;;;;;;;17.57;85.81;100743.09;4910413;29;20048;-79
2022/09/08 01:55:51;;;;;;;11.50;3.60;;;;;;;17.55;88.29;100763.72;4897469;29;20104;-79
2022/09/08 01:58:17;;;;;;;12.00;3.97;;;;;;;17.52;87.72;100767.44;4917274;29;20043;-79
2022/09/08 02:00:43;;;;;;;19.48;4.50;;;;;;;17.48;87.84;100757.84;4915372;29;20032;-82
2022/09/08 02:03:11;;;;;;;11.07;3.42;;;;;;;17.41;87.39;100732.34;4900733;29;20369;-81
2022/09/08 02:05:38;;;;;;;12.68;3.47;;;;;;;17.39;86.12;100724.38;4900425;29;20044;-81
2022/09/08 02:08:04;;;;;;;10.20;3.10;;;;;;;17.37;86.25;100728.06;4900524;29;20054;-81
2022/09/08 02:10:30;;;;;;;9.55;3.38;;;;;;;17.35;86.09;100736.16;4900296;29;20040;-80
2022/09/08 02:12:55;;;;;;;8.63;3.42;;;;;;;17.31;85.24;100728.38;4916923;29;20044;-80
2022/09/08 02:15:21;;;;;;;9.88;3.13;;;;;;;17.26;85.52;100723.28;4890748;29;20039;-80
2022/09/08 02:17:46;;;;;;;9.32;3.13;;;;;;;17.28;85.34;100725.88;4917205;29;20036;-81
2022/09/08 02:20:15;;;;;;;8.93;3.00;;;;;;;17.24;85.35;100718.97;4916559;29;20135;-81
2022/09/08 02:22:41;;;;;;;9.20;3.33;;;;;;;17.22;85.11;100702.97;4898381;29;20484;-81
2022/09/08 02:25:06;;;;;;;10.57;3.22;;;;;;;17.22;86.13;100708.31;4916677;29;20031;-81
2022/09/08 02:27:32;;;;;;;10.98;3.15;;;;;;;17.20;86.44;100697.69;4915270;29;20060;-81
2022/09/08 02:29:57;;;;;;;10.18;3.10;;;;;;;17.20;87.51;100699.50;4899584;29;20076;-81
2022/09/08 02:32:23;;;;;;;7.15;2.78;;;;;;;17.20;87.21;100694.16;4915982;29;20095;-81
2022/09/08 02:34:48;;;;;;;9.25;3.55;;;;;;;17.18;87.03;100683.53;4911331;29;20463;-81
2022/09/08 02:37:14;;;;;;;7.68;2.80;;;;;;;17.19;87.03;100687.94;4908598;29;20067;-81
2022/09/08 02:39:39;;;;;;;6.57;2.55;;;;;;;17.18;87.80;100675.53;4916294;29;20024;-81
2022/09/08 02:42:06;;;;;;;9.13;2.95;;;;;;;17.20;87.75;100691.47;4915652;29;20433;-81
2022/09/08 02:44:32;;;;;;;7.93;2.72;;;;;;;17.23;86.77;100695.81;4886514;29;20068;-81
2022/09/08 02:46:57;;;;;;;7.35;2.90;;;;;;;17.22;86.88;100694.94;4899042;29;20525;-81
2022/09/08 02:49:23;;;;;;;8.45;3.15;;;;;;;17.22;87.49;100697.63;4883881;29;20073;-81
2022/09/08 02:51:49;;;;;;;8.80;2.95;;;;;;;17.17;86.97;100703.22;4908690;29;20036;-81
2022/09/08 02:54:15;;;;;;;13.57;3.72;;;;;;;17.16;87.46;100701.50;4892020;29;20032;-81
2022/09/08 02:56:40;;;;;;;8.80;3.15;;;;;;;17.10;87.92;100701.78;4915371;29;20047;-81
2022/09/08 02:59:06;;;;;;;9.70;3.78;;;;;;;17.09;88.82;100697.38;4899434;29;20396;-82
2022/09/08 03:01:31;;;;;;;11.10;3.05;;;;;;;17.08;88.52;100695.63;4916032;29;20059;-81
2022/09/08 03:03:57;;;;;;;11.18;3.42;;;;;;;17.07;87.92;100699.28;4915808;29;20035;-81
2022/09/08 03:06:23;;;;;;;8.57;3.83;;;;;;;17.08;87.86;100711.69;4899151;29;20370;-81
2022/09/08 03:08:49;;;;;;;10.73;4.13;;;;;;;17.04;89.14;100711.97;4910407;29;20044;-80
2022/09/08 03:11:16;;;;;;;9.85;3.53;;;;;;;16.97;89.49;100712.25;4909095;29;20262;-79
2022/09/08 03:13:42;;;;;;;9.60;3.80;;;;;;;16.94;90.06;100704.38;4911688;29;20048;-80
2022/09/08 03:16:07;;;;;;;10.88;3.63;;;;;;;16.92;89.97;100710.75;4889945;29;20035;-79
2022/09/08 03:18:33;;;;;;;8.55;3.80;;;;;;;16.94;89.84;100716.91;4915764;29;20044;-79
2022/09/08 03:21:05;;;;;;;12.77;3.80;;;;;;;16.90;88.83;100708.16;4915915;29;20493;-79
2022/09/08 03:23:31;;;;;;;13.93;4.13;;;;;;;16.88;88.99;100702.00;4910242;29;20032;-79
2022/09/08 03:26:06;;;;;;;9.82;3.63;;;;;;;16.85;89.69;100701.31;4898859;29;20496;-79
2022/09/08 03:28:32;;;;;;;8.60;3.55;;;;;;;16.82;89.74;100696.97;4893485;29;20040;-79
2022/09/08 03:30:58;;;;;;;9.63;4.22;;;;;;;16.79;90.45;100702.50;4915529;29;20184;-79
2022/09/08 03:33:23;;;;;;;10.70;3.80;;;;;;;16.72;89.22;100704.56;4915793;29;20040;-80
2022/09/08 03:35:49;;;;;;;7.00;3.40;;;;;;;16.72;90.20;100701.88;4898528;29;20350;-79
2022/09/08 03:38:19;;;;;;;9.90;3.90;;;;;;;16.69;92.18;100702.03;4898673;29;20040;-79
2022/09/08 03:40:45;;;;;;;10.52;3.95;;;;;;;16.61;92.00;100706.03;4915419;29;20063;-79
2022/09/08 03:43:11;;;;;;;8.93;3.70;;;;;;;16.59;91.72;100698.06;4907942;29;20024;-80
2022/09/08 03:45:42;;;;;;;7.55;3.78;;;;;;;16.58;91.47;100696.34;4879981;29;20032;-80
2022/09/08 03:48:08;;;;;;;12.75;4.30;;;;;;;16.59;91.45;100700.75;4896577;29;20483;-80
2022/09/08 03:50:33;;;;;;;12.40;4.00;;;;;;;16.60;91.46;100715.84;4907268;29;20063;-80
2022/09/08 03:52:59;;;;;;;7.63;3.95;;;;;;;16.60;91.72;100726.56;4914868;29;20087;-80
2022/09/08 03:55:24;;;;;;;11.57;3.50;;;;;;;16.61;90.98;100733.63;4914517;29;20032;-81
2022/09/08 03:57:49;;;;;;;7.45;3.55;;;;;;;16.54;91.86;100748.22;4898074;29;20043;-80
2022/09/08 04:00:15;;;;;;;8.13;3.08;;;;;;;16.48;90.97;100737.84;4914001;29;20376;-80
2022/09/08 04:02:41;;;;;;;8.13;3.13;;;;;;;16.30;92.23;100721.75;4914038;29;20218;-80
2022/09/08 04:05:07;;;;;;;11.73;3.63;;;;;;;16.22;91.48;100698.97;4915322;29;20032;-76
2022/09/08 04:07:34;;;;;;;8.32;3.45;;;;;;;16.14;92.72;100707.38;4898569;29;20047;-76
2022/09/08 04:10:01;;;;;;;9.45;3.53;;;;;;;16.16;92.00;100708.16;4915741;29;20111;-76
2022/09/08 04:12:28;;;;;;;8.43;2.83;;;;;;;16.18;91.78;100711.63;4905698;29;20044;-76
2022/09/08 04:14:53;;;;;;;8.43;2.90;;;;;;;16.16;91.77;100688.59;4911422;29;20032;-76
2022/09/08 04:17:21;;;;;;;8.85;3.22;;;;;;;16.11;92.29;100688.81;4887963;29;20028;-75
2022/09/08 04:19:51;;;;;;;10.23;3.13;;;;;;;16.06;93.20;100688.16;4914792;29;20578;-75
2022/09/08 04:22:21;;;;;;;8.00;3.17;;;;;;;16.08;92.02;100683.63;4907416;29;20441;-75
2022/09/08 04:24:47;;;;;;;6.32;2.95;;;;;;;16.03;92.14;100691.00;4909862;29;20055;-75
2022/09/08 04:27:13;;;;;;;9.82;2.63;;;;;;;16.01;91.72;100701.75;4897760;29;20024;-75
2022/09/08 04:29:39;;;;;;;5.50;2.95;;;;;;;16.00;91.98;100699.13;4915071;29;20042;-75
2022/09/08 04:32:07;;;;;;;7.28;2.70;;;;;;;15.99;92.87;100711.63;4914493;29;20199;-75
2022/09/08 04:34:33;;;;;;;6.68;2.80;;;;;;;16.00;92.45;100715.16;4914781;29;20048;-75
2022/09/08 04:36:59;;;;;;;8.60;3.15;;;;;;;15.93;93.37;100709.25;4885712;29;20067;-75
2022/09/08 04:39:24;;;;;;;7.93;3.00;;;;;;;15.91;93.13;100711.97;4913685;29;20040;-75
2022/09/08 04:41:50;;;;;;;9.15;2.58;;;;;;;15.90;93.89;100717.41;4879178;29;20048;-74
2022/09/08 04:44:15;;;;;;;8.25;3.03;;;;;;;15.90;94.37;100718.28;4909266;29;20068;-75
2022/09/08 04:46:40;;;;;;;9.60;3.50;;;;;;;15.90;94.40;100728.09;4904608;29;20456;-75
2022/09/08 04:49:06;;;;;;;7.78;2.90;;;;;;;15.87;94.63;100729.09;4897980;29;20059;-75
2022/09/08 04:51:32;;;;;;;10.57;3.20;;;;;;;15.85;94.44;100722.06;4915064;29;20491;-74
2022/09/08 04:53:59;;;;;;;8.60;2.83;;;;;;;15.84;95.39;100715.88;4906441;29;20037;-75
2022/09/08 04:56:26;;;;;;;6.65;2.65;;;;;;;15.85;95.39;100725.63;4913681;29;20132;-74
2022/09/08 04:58:52;;;;;;;4.82;2.60;;;;;;;15.82;95.07;100723.06;4897613;29;20038;-74
2022/09/08 05:01:23;;;;;;;8.20;2.88;;;;;;;15.82;95.66;100724.88;4911611;29;20366;-75
2022/09/08 05:03:54;;;;;;;9.32;3.08;;;;;;;15.84;95.85;100731.88;4873328;29;20142;-75
2022/09/08 05:06:20;;;;;;;;;;;;;;;15.92;93.09;100728.84;4918402;29;20036;-74
2022/09/08 05:08:48;;;;;;;4.82;2.45;;;;;;;15.89;94.84;100729.88;4916941;29;19915;-75
2022/09/08 05:11:14;;;;;;;6.38;3.00;;;;;;;15.91;95.29;100724.47;4918145;29;20492;-75
2022/09/08 05:13:40;;;;;;;9.40;3.28;;;;;;;15.93;95.35;100727.09;4901284;29;20094;-75
2022/09/08 05:16:09;;;;;;;7.15;3.35;;;;;;;15.93;95.28;100727.09;4906132;29;20481;-75
2022/09/08 05:18:35;;;;;;;10.85;3.05;;;;;;;15.97;95.28;100729.50;4916046;29;20031;-75
2022/09/08 05:21:01;;;;;;;8.25;2.83;;;;;;;15.97;94.62;100736.66;4916883;29;20091;-76
2022/09/08 05:23:27;;;;;;;8.05;3.22;;;;;;;15.97;95.24;100737.53;4901282;29;20106;-76
2022/09/08 05:26:06;;;;;;;8.65;3.45;;;;;;;15.98;94.51;100739.28;4901548;29;20084;-77
2022/09/08 05:28:35;;;;;;;12.82;4.20;;;;;;;15.97;95.06;100732.19;4901153;29;20378;-76
2022/09/08 05:31:01;;;;;;;13.35;3.50;;;;;;;15.97;95.00;100734.00;4917912;29;20044;-76
2022/09/08 05:33:27;;;;;;;6.72;3.10;;;;;;;15.99;94.69;100732.13;4917648;29;20111;-75
2022/09/08 05:35:53;;;;;;;8.52;3.58;;;;;;;16.00;95.43;100734.75;4916491;29;20052;-76
2022/09/08 05:38:19;;;;;;;10.63;3.28;;;;;;;15.99;94.98;100726.78;4917644;29;20028;-75
2022/09/08 05:40:45;;;;;;;7.63;3.42;;;;;;;16.01;94.82;100731.13;4917488;29;20120;-75
2022/09/08 05:43:10;;;;;;;8.40;3.55;;;;;;;15.99;94.50;100730.31;4917581;29;20048;-75
2022/09/08 05:45:36;;;;;;;11.23;4.32;;;;;;;15.97;95.81;100736.66;4917563;29;20028;-76
2022/09/08 05:48:02;;;;;;;8.82;4.55;;;;;;;15.93;96.68;100735.94;4917891;29;20040;-77
2022/09/08 05:50:34;;;;;;;7.65;4.03;;;;;;;15.91;95.78;100729.81;4917515;29;20032;-77
2022/09/08 05:53:02;;;;;;;10.98;4.45;;;;;;;15.90;95.84;100731.63;4913439;29;20041;-77
2022/09/08 05:55:28;;;;;;;7.97;4.22;;;;;;;15.91;95.56;100735.16;4892685;29;20040;-77
2022/09/08 05:57:54;;;;;;;10.82;4.68;;;;;;;15.92;96.62;100736.88;4901052;29;20547;-77
2022/09/08 06:00:21;;;;;;;9.82;4.72;;;;;;;15.86;97.15;100742.50;4906224;29;20040;-77
2022/09/08 06:02:55;;;;;;;12.80;5.22;;;;;;;15.83;97.96;100738.19;4900510;29;20113;-77
2022/09/08 06:05:22;;;;;;;9.45;5.00;;;;;;;15.86;97.53;100739.84;4900554;29;20039;-77
2022/09/08 06:07:48;;;;;;;10.43;4.85;;;;;;;15.85;97.49;100741.66;4899721;29;20353;-77
2022/09/08 06:10:16;;;;;;;13.25;5.70;;;;;;;15.87;97.69;100745.13;4887866;29;20127;-77
2022/09/08 06:12:41;;;;;;;11.52;4.78;;;;;;;15.86;97.19;100742.50;4916901;29;20032;-76
2022/09/08 06:15:08;;;;;;;8.10;5.00;;;;;;;15.86;97.79;100739.84;4903476;29;20043;-75
2022/09/08 06:17:35;;;;;;;10.70;4.75;;;;;;;15.88;97.87;100732.63;4899806;29;20047;-75
2022/09/08 06:20:01;;;;;;;10.02;5.28;;;;;;;15.91;97.99;100727.13;4903203;29;20456;-76
2022/09/08 06:22:29;;;;;;;9.82;5.05;;;;;;;15.95;97.70;100736.75;4916697;29;20095;-76
2022/09/08 06:24:54;;;;;;;8.90;5.57;;;;;;;15.99;98.14;100734.78;4916598;29;20031;-76
2022/09/08 06:27:37;;;;;;;11.10;4.97;;;;;;;15.95;97.82;100728.75;4899666;29;20099;-76
2022/09/08 06:30:14;;;;;;;10.52;5.15;;;;;;;15.96;98.42;100730.47;4900213;29;20028;-76
2022/09/08 06:32:47;;;;;;;9.98;5.05;;;;;;;15.98;96.93;100738.41;4899072;29;20040;-76
2022/09/08 06:35:24;;;;;;;10.55;5.05;;;;;;;15.99;97.50;100732.97;4909196;29;20040;-77
2022/09/08 06:37:54;;;;;;;8.13;5.00;;;;;;;16.04;98.53;100738.97;4916379;29;20040;-76
2022/09/08 06:40:24;;;;;;;8.20;4.80;;;;;;;16.05;96.71;100738.06;4904405;29;20040;-76
2022/09/08 06:43:03;;;;;;;10.32;5.20;;;;;;;16.11;97.00;100739.56;4914187;29;20104;-81
2022/09/08 06:45:34;;;;;;;8.95;4.85;;;;;;;16.11;95.57;100750.25;4908333;29;20374;-82
2022/09/08 06:48:11;;;;;;;10.68;5.07;;;;;;;16.14;97.20;100744.75;4902965;29;20063;-82
2022/09/08 06:51:01;;;;;;;9.43;5.78;;;;;;;16.13;97.54;100748.38;4916190;29;20055;-81
2022/09/08 06:53:54;;;;;;;13.52;6.30;;;;;;;16.08;98.55;100756.59;4907696;29;20415;-82
2022/09/08 06:56:41;;;;;;;9.30;5.75;;;;;;;16.05;98.49;100753.22;4872290;29;20539;-81
2022/09/08 06:59:31;;;;;;;10.57;5.72;;;;;;;16.08;98.21;100755.75;4916145;29;20044;-82
2022/09/08 07:02:11;;;;;;;12.63;5.85;;;;;;;16.14;98.70;100750.09;4867463;29;20070;-81
2022/09/08 07:05:10;;;;;;;10.32;5.82;;;;;;;16.16;97.45;100742.03;4902695;29;20120;-82
2022/09/08 07:07:56;;;;;;;9.82;5.47;;;;;;;16.20;97.92;100747.16;4915989;29;20044;-81
2022/09/08 07:10:23;;;;;;;10.27;5.90;;;;;;;16.22;98.70;100745.28;4887420;29;20044;-82
2022/09/08 07:12:58;;;;;;;9.15;5.68;;;;;;;16.25;97.52;100741.63;4899085;29;20040;-82
2022/09/08 07:16:03;;;;;;;9.52;5.60;;;;;;;16.32;96.51;100749.25;4902388;29;20051;-82
2022/09/08 07:18:49;;;;;;;12.23;6.47;;;;;;;16.34;97.26;100744.72;4884634;29;20056;-82
2022/09/08 07:21:27;;;;;;;11.55;6.28;;;;;;;16.37;96.86;100754.41;4908325;29;20084;-82
2022/09/08 07:23:55;;;;;;;16.35;7.63;;;;;;;16.38;98.90;100749.91;4903413;29;20469;-82
2022/09/08 07:26:27;;;;;;;13.15;7.63;;;;;;;16.40;97.53;100748.03;4914949;29;20028;-81
2022/09/08 07:28:55;;;;;;;11.85;7.63;;;;;;;16.42;98.67;100751.47;4870153;29;20043;-81
2022/09/08 07:31:24;;;;;;;13.60;8.10;;;;;;;16.46;98.59;100753.94;4898252;29;20044;-81
2022/09/08 07:34:05;;;;;;;13.68;7.53;;;;;;;16.47;97.46;100746.81;4908660;29;20520;-81
2022/09/08 07:36:43;;;;;;;19.52;8.10;;;;;;;16.49;99.23;100752.91;4905112;29;20047;-81
2022/09/08 07:39:15;;;;;;;15.48;8.18;;;;;;;16.51;98.74;100754.56;4915512;29;20055;-81
2022/09/08 07:41:48;;;;;;;13.02;7.65;;;;;;;16.50;97.95;100752.88;4882783;29;20032;-81
2022/09/08 07:44:16;;;;;;;14.52;8.13;;;;;;;16.53;98.95;100752.69;4904468;29;20468;-81
2022/09/08 07:47:05;;;;;;;15.27;9.10;;;;;;;16.65;99.94;100751.25;4887920;29;20103;-81
2022/09/08 07:49:54;;;;;;;14.77;7.70;;;;;;;16.65;96.70;100748.59;4911253;29;20044;-80
2022/09/08 07:52:25;;;;;;;14.32;8.02;;;;;;;16.64;97.27;100749.53;4908763;29;20040;-81
2022/09/08 07:55:06;;;;;;;15.32;8.50;;;;;;;16.70;97.96;100745.69;4885542;29;20043;-81
2022/09/08 07:58:01;;;;;;;12.55;8.57;;;;;;;16.75;97.50;100760.56;4915009;29;20040;-80
2022/09/08 08:00:47;;;;;;;14.75;7.93;;;;;;;16.73;96.06;100756.22;4915168;29;20119;-80
2022/09/08 08:03:34;;;;;;;12.43;7.28;;;;;;;16.84;97.92;100764.63;4911266;29;20629;-80
2022/09/08 08:06:10;;;;;;;11.02;7.00;;;;;;;16.91;95.73;100766.06;4913729;29;20112;-80
2022/09/08 08:09:02;;;;;;;14.73;7.88;;;;;;;17.08;95.92;100761.66;4886006;29;20039;-80
2022/09/08 08:11:57;;;;;;;12.10;7.50;;;;;;;17.13;94.54;100765.84;4901586;29;20496;-80
2022/09/08 08:14:44;;;;;;;13.13;7.30;;;;;;;17.19;95.25;100760.19;4914788;29;20032;-80
2022/09/08 08:17:09;;;;;;;14.32;7.65;;;;;;;17.17;93.97;100755.84;4903402;29;20042;-81
2022/09/08 08:19:56;;;;;;;14.45;7.32;;;;;;;17.14;92.83;100759.56;4907849;29;20028;-80
2022/09/08 08:22:40;;;;;;;12.55;6.80;;;;;;;17.11;92.51;100758.84;4908774;29;20504;-80
2022/09/08 08:25:21;;;;;;;13.52;6.57;;;;;;;17.20;91.91;100771.75;4910902;29;20040;-79
2022/09/08 08:28:12;;;;;;;11.73;6.57;;;;;;;17.20;90.15;100761.06;4905282;29;20408;-79
2022/09/08 08:31:03;;;;;;;8.15;5.90;;;;;;;17.17;89.98;100756.72;4885349;29;20531;-79
2022/09/08 08:33:39;;;;;;;9.95;6.35;;;;;;;17.12;90.25;100756.09;4909723;29;20041;-79
2022/09/08 08:36:15;;;;;;;10.40;5.75;;;;;;;17.09;90.10;100756.25;4914392;29;20344;-80
2022/09/08 08:38:44;;;;;;;11.50;5.80;;;;;;;17.21;90.50;100760.13;4915546;29;20052;-79
2022/09/08 08:41:25;;;;;;;9.93;4.55;;;;;;;17.23;87.84;100763.56;4918409;29;20043;-79
2022/09/08 08:43:57;;;;;;;7.95;4.00;;;;;;;17.12;86.43;100765.94;4911073;29;20028;-79
2022/09/08 08:46:35;;;;;;;7.93;3.60;;;;;;;17.16;86.28;100764.81;4905527;29;20571;-79
2022/09/08 08:49:19;;;;;;;9.35;4.00;;;;;;;17.31;87.06;100777.44;4911658;29;20044;-79
2022/09/08 08:52:00;;;;;;;10.48;4.50;;;;;;;17.46;85.54;100773.13;4898298;29;20124;-80
2022/09/08 08:54:55;;;;;;;7.35;3.97;;;;;;;17.51;86.89;100772.88;4914159;29;20047;-79
2022/09/08 08:57:27;;;;;;;7.60;3.80;;;;;;;17.52;83.23;100770.09;4896362;29;20044;-79
2022/09/08 09:00:15;;;;;;;6.30;3.75;;;;;;;17.59;84.36;100771.53;4898666;29;20051;-79
2022/09/08 09:03:02;;;;;;;9.45;3.50;;;;;;;17.79;85.40;100767.78;4913019;29;20346;-79
2022/09/08 09:05:43;;;;;;;9.65;3.70;;;;;;;18.01;85.70;100764.88;4906953;29;20040;-79
2022/09/08 09:08:26;;;;;;;6.88;3.65;;;;;;;18.14;81.94;100770.41;4917941;29;20050;-79
2022/09/08 09:11:21;;;;;;;6.93;3.30;;;;;;;18.09;81.57;100764.44;4909275;29;20086;-79
2022/09/08 09:14:18;;;;;;;10.00;3.70;;;;;;;18.02;81.73;100771.06;4910590;29;20112;-79
2022/09/08 09:17:09;;;;;;;6.20;3.42;;;;;;;18.12;85.03;100766.94;4903271;29;20071;-80
2022/09/08 09:20:03;;;;;;;10.40;3.60;;;;;;;18.11;81.58;100770.59;4917941;29;20047;-79
2022/09/08 09:22:52;;;;;;;4.95;2.92;;;;;;;18.13;82.80;100773.19;4891277;29;20499;-79
2022/09/08 09:25:18;;;;;;;5.30;2.90;;;;;;;18.27;80.68;100767.91;4917728;29;20522;-80
2022/09/08 09:27:45;;;;;;;6.18;2.60;;;;;;;18.25;79.21;100773.38;4917972;29;20028;-80
2022/09/08 09:30:42;;;;;;;10.40;4.05;;;;;;;18.28;80.95;100769.66;4917463;29;20044;-79
2022/09/08 09:33:43;;;;;;;7.50;3.00;;;;;;;18.18;80.01;100771.13;4906845;29;20522;-79
2022/09/08 09:36:23;;;;;;;7.88;2.88;;;;;;;18.14;79.99;100775.78;4869190;29;20044;-79
2022/09/08 09:39:07;;;;;;;12.23;3.03;;;;;;;18.10;80.92;100771.56;4912011;29;20052;-79
2022/09/08 09:41:51;;;;;;;7.47;2.40;;;;;;;18.00;79.85;100772.97;4916719;29;20032;-80
2022/09/08 09:44:38;;;;;;;7.43;2.42;;;;;;;18.19;80.82;100770.16;4917674;29;20024;-79
2022/09/08 09:47:31;;;;;;;7.72;2.63;;;;;;;18.31;79.15;100764.13;4908616;29;20047;-79
2022/09/08 09:50:19;;;;;;;8.40;2.10;;;;;;;18.52;77.27;100766.56;4904137;29;20079;-79
2022/09/08 09:53:19;;;;;;;11.07;2.15;;;;;;;18.77;74.26;100758.00;4916157;29;20601;-79
2022/09/08 09:56:17;;;;;;;6.40;2.00;;;;;;;19.08;75.29;100768.72;4848415;29;20089;-79
2022/09/08 09:58:48;;;;;;;5.55;2.15;;;;;;;19.26;72.94;100769.47;4908002;29;20060;-79
2022/09/08 10:01:35;;;;;;;5.88;2.05;;;;;;;19.44;74.66;100763.94;4916938;29;20140;-79
2022/09/08 10:04:17;;;;;;;7.32;1.98;;;;;;;19.68;72.52;100758.91;4908001;29;20039;-79
2022/09/08 10:06:51;;;;;;;8.00;2.28;;;;;;;19.59;69.13;100771.06;4915840;29;20036;-79
2022/09/08 10:09:43;;;;;;;8.45;2.33;;;;;;;19.47;70.31;100771.81;4917114;29;20127;-79
2022/09/08 10:12:35;;;;;;;11.38;1.80;;;;;;;19.31;70.52;100770.06;4894180;29;20032;-79
2022/09/08 10:15:35;;;;;;;6.00;2.08;;;;;;;19.11;71.56;100776.59;4911382;29;20485;-79
2022/09/08 10:18:39;;;;;;;7.72;2.25;;;;;;;19.21;71.47;100779.59;4900018;29;20205;-79
2022/09/08 10:21:44;;;;;;;7.85;2.33;;;;;;;19.33;72.90;100770.81;4904375;29;20048;-79
2022/09/08 10:24:36;;;;;;;7.28;2.42;;;;;;;19.29;72.20;100771.09;4887187;29;20055;-79
2022/09/08 10:27:23;;;;;;;7.40;1.90;;;;;;;19.36;73.64;100771.56;4898710;29;20043;-79
2022/09/08 10:30:13;;;;;;;8.23;2.40;;;;;;;19.53;71.87;100776.81;4916959;29;20456;-79
2022/09/08 10:32:57;;;;;;;8.20;2.30;;;;;;;19.59;72.30;100775.59;4916692;29;20499;-79
2022/09/08 10:35:37;;;;;;;8.63;3.03;;;;;;;19.88;71.42;100773.81;4916513;29;20040;-80
2022/09/08 10:38:40;;;;;;;7.53;1.83;;;;;;;20.24;70.90;100772.50;4898077;29;20123;-80
2022/09/08 10:41:18;;;;;;;9.77;2.40;;;;;;;20.17;68.33;100763.94;4898595;29;20039;-80
2022/09/08 10:44:04;;;;;;;11.52;2.00;;;;;;;20.14;68.37;100762.31;4908415;29;20047;-80
2022/09/08 10:46:41;;;;;;;6.05;1.92;;;;;;;20.33;67.60;100767.38;4915715;29;20047;-79
2022/09/08 10:49:18;;;;;;;16.70;2.78;;;;;;;20.49;66.86;100758.34;4915304;29;20116;-79
2022/09/08 10:51:53;;;;;;;11.32;2.33;;;;;;;20.37;67.42;100762.66;4899633;29;20059;-79
2022/09/08 10:55:13;;;;;;;9.48;2.42;;;;;;;20.34;67.53;100769.09;4903305;29;20047;-79
2022/09/08 10:57:48;;;;;;;6.70;1.95;;;;;;;20.17;65.21;100762.09;4834957;29;20518;-79
2022/09/08 11:00:19;;;;;;;8.65;2.15;;;;;;;20.31;68.01;100752.31;4915149;29;20055;-79
2022/09/08 11:03:01;;;;;;;8.52;2.55;;;;;;;20.54;64.59;100753.50;4897656;29;20036;-79
2022/09/08 11:05:39;;;;;;;9.75;1.88;;;;;;;20.66;63.53;100746.50;4894616;29;20036;-79
2022/09/08 11:08:19;;;;;;;7.07;1.90;;;;;;;20.89;63.00;100742.28;4913848;29;20043;-79
2022/09/08 11:11:06;;;;;;;9.18;2.30;;;;;;;21.19;63.23;100744.75;4890767;29;20055;-79
2022/09/08 11:13:52;;;;;;;6.93;2.03;;;;;;;21.37;63.67;100751.59;4910606;29;20036;-79
2022/09/08 11:16:27;;;;;;;4.25;1.75;;;;;;;21.20;61.23;100744.66;4878698;29;20042;-79
2022/09/08 11:19:11;;;;;;;10.55;2.38;;;;;;;21.02;61.96;100764.75;4916189;29;20483;-79
2022/09/08 11:21:47;;;;;;;7.50;2.28;;;;;;;20.64;61.50;100756.50;4916064;29;20039;-79
2022/09/08 11:24:29;;;;;;;6.28;1.85;;;;;;;20.39;62.68;100747.31;4914937;29;20032;-79
2022/09/08 11:27:21;;;;;;;9.48;2.20;;;;;;;20.31;64.06;100755.00;4915915;29;20068;-79
2022/09/08 11:30:10;;;;;;;8.32;2.30;;;;;;;20.28;64.77;100742.63;4903518;29;20173;-78
2022/09/08 11:32:47;;;;;;;10.65;1.92;;;;;;;20.22;65.32;100747.53;4913305;29;20067;-79
2022/09/08 11:35:25;;;;;;;9.43;2.25;;;;;;;20.03;64.19;100754.06;4896596;29;20047;-78
2022/09/08 11:38:23;;;;;;;9.50;2.22;;;;;;;19.92;65.66;100746.66;4897325;29;20040;-79
2022/09/08 11:41:15;;;;;;;8.07;2.10;;;;;;;19.96;66.25;100750.91;4911780;29;20520;-79
2022/09/08 11:43:58;;;;;;;6.95;2.30;;;;;;;19.98;67.44;100743.59;4900015;29;20043;-78
2022/09/08 11:46:42;;;;;;;8.02;2.25;;;;;;;20.02;66.96;100746.09;4915732;29;20392;-78
2022/09/08 11:49:38;;;;;;;9.15;2.40;;;;;;;19.96;66.79;100745.53;4907047;29;20055;-79
2022/09/08 11:52:32;;;;;;;8.23;2.65;;;;;;;20.22;69.75;100744.84;4898565;29;20095;-78
2022/09/08 11:55:34;;;;;;;8.02;2.17;;;;;;;20.84;66.37;100737.22;4878822;29;20049;-78
2022/09/08 11:58:18;;;;;;;6.53;2.25;;;;;;;21.47;64.48;100727.59;4915291;29;20036;-79
2022/09/08 12:01:12;;;;;;;7.70;2.40;;;;;;;21.42;62.88;100722.53;4915535;29;20046;-79